Coron, Philippines
Current Conditions -  °F | °C
As of 7:00 AM on Sunday 26 Oct 2014 (Local Time) from RPLL Reporting Station
Scattered Clouds Scattered Clouds  
Wind Chill: 82°   Ceiling: Unl
Heat Index: 91°   Visibility: 6mi
Dew Point: 77°   Wind: 2mph
Humidity: 84%   Direction: NA
Pressure: 29.91"   Gusts: NA
Location:  12°N, 120.21°E
Report Text: RPLL 252300Z VRB02KT 9999 FEW025 SCT100 28/25 Q1013 NOSIG RMK A2991
Loading
Personal Weather Stations






























Interactive Weather Map New forecast layout! Learn more

10-Day Weather Forecast

Advertisements
Track Severe Weather on mobile